Sea Blackhead, Ireland
Current Conditions -  °F | °C
As of 8:30 PM on Sunday 23 Nov 2014 (Local Time) from EIKN Reporting Station
Broken Clouds Broken Clouds  
Wind Chill: 36°   Ceiling: 28000
Heat Index: 39°   Visibility: 6mi
Dew Point: 36°   Wind: 5mph
Humidity: 87%   Direction: 210°SSW
Pressure: 30.12"   Gusts: NA
Location:  53.5°N, 10.33°W
Report Text: EIKN 231930Z 21004KT 9999 FEW025 SCT038 BKN280 04/02 Q1020 NOSIG
Loading
Personal Weather Stations






























Interactive Weather Map New forecast layout! Learn more

10-Day Weather Forecast

Advertisements
Track Severe Weather on mobile